createdAt,value
2022-10-19T00:00:10.024Z,29.72
2022-10-19T00:02:40.661Z,29.69
2022-10-19T00:05:11.449Z,29.83
2022-10-19T00:07:42.319Z,29.77
2022-10-19T00:10:12.723Z,29.91
2022-10-19T00:12:43.228Z,29.87
2022-10-19T00:15:13.768Z,29.88
2022-10-19T00:17:44.455Z,29.93
2022-10-19T00:20:14.832Z,29.78
2022-10-19T00:22:45.274Z,29.88
2022-10-19T00:25:15.645Z,29.87
2022-10-19T00:27:46.204Z,29.92
2022-10-19T00:30:16.911Z,29.92
2022-10-19T00:32:47.250Z,29.96
2022-10-19T00:35:17.879Z,29.93
2022-10-19T00:37:48.385Z,29.97
2022-10-19T00:40:18.897Z,29.98
2022-10-19T00:42:55.102Z,29.98
2022-10-19T00:45:25.576Z,29.98
2022-10-19T00:47:56.204Z,29.99
2022-10-19T00:50:26.607Z,29.99
2022-10-19T00:52:57.400Z,30.00
2022-10-19T00:55:27.865Z,30.01
2022-10-19T00:57:58.715Z,30.00
2022-10-19T01:00:35.954Z,29.94
2022-10-19T01:03:11.249Z,29.90
2022-10-19T01:05:46.460Z,29.93
2022-10-19T01:08:26.152Z,30.00
2022-10-19T01:11:31.786Z,29.91
2022-10-19T01:14:54.255Z,29.85
2022-10-19T01:17:47.912Z,29.95
2022-10-19T01:21:02.137Z,29.86
2022-10-19T01:23:59.435Z,29.92
2022-10-19T01:27:01.905Z,29.31
2022-10-19T01:29:59.474Z,29.99
2022-10-19T01:32:59.391Z,29.89
2022-10-19T01:35:45.609Z,29.96
2022-10-19T01:38:50.929Z,29.88
2022-10-19T01:41:36.538Z,29.89
2022-10-19T01:44:23.018Z,29.29
2022-10-19T01:47:07.185Z,29.46
2022-10-19T01:49:54.726Z,29.50
2022-10-19T01:52:33.296Z,29.99
2022-10-19T01:55:07.498Z,29.96
2022-10-19T01:57:48.717Z,30.01
2022-10-19T02:00:21.612Z,29.99
2022-10-19T02:02:55.826Z,29.35
2022-10-19T02:05:34.701Z,29.47
2022-10-19T02:08:22.443Z,29.85
2022-10-19T02:10:55.037Z,30.01
2022-10-19T02:13:30.464Z,29.81
2022-10-19T02:16:05.030Z,30.04
2022-10-19T02:18:43.279Z,30.02
2022-10-19T02:21:15.748Z,30.03
2022-10-19T02:23:51.885Z,30.03
2022-10-19T02:26:26.875Z,30.04
2022-10-19T02:29:03.995Z,30.03
2022-10-19T02:31:41.739Z,30.03
2022-10-19T02:34:17.591Z,30.02
2022-10-19T02:36:50.779Z,30.03
2022-10-19T02:39:26.168Z,30.03
2022-10-19T02:42:07.364Z,29.96
2022-10-19T02:44:44.641Z,30.06
2022-10-19T02:47:56.297Z,29.89
2022-10-19T02:50:28.981Z,30.03
2022-10-19T02:53:06.901Z,30.06
2022-10-19T02:55:44.783Z,30.05
2022-10-19T02:58:22.832Z,30.05
2022-10-19T03:00:53.984Z,30.03
2022-10-19T03:03:34.003Z,29.94
2022-10-19T03:06:05.406Z,30.04
2022-10-19T03:08:39.697Z,30.06
2022-10-19T03:11:19.790Z,30.01
2022-10-19T03:13:51.746Z,30.04
2022-10-19T03:16:25.547Z,30.05
2022-10-19T03:19:13.333Z,29.97
2022-10-19T03:21:49.928Z,30.06
2022-10-19T03:24:23.900Z,30.07
2022-10-19T03:26:57.510Z,30.00
2022-10-19T03:29:29.932Z,30.07
2022-10-19T03:32:13.976Z,30.03
2022-10-19T03:34:53.263Z,30.00
2022-10-19T03:37:29.405Z,30.06
2022-10-19T03:43:28.022Z,29.67
2022-10-19T03:46:15.942Z,30.05
2022-10-19T03:48:49.982Z,30.05
2022-10-19T03:51:29.773Z,29.62
2022-10-19T03:54:10.596Z,29.61
2022-10-19T03:56:48.386Z,30.08
2022-10-19T03:59:22.792Z,30.09
2022-10-19T04:04:48.366Z,30.06
2022-10-19T04:07:19.247Z,30.07
2022-10-19T04:09:50.214Z,30.11
2022-10-19T04:12:21.073Z,30.12
2022-10-19T04:14:57.179Z,29.96
2022-10-19T04:17:29.040Z,30.09
2022-10-19T04:20:00.358Z,29.80
2022-10-19T04:22:31.459Z,30.09
2022-10-19T04:25:03.355Z,30.14
2022-10-19T04:27:34.311Z,30.13
2022-10-19T04:30:06.128Z,30.13
2022-10-19T04:32:42.114Z,30.13
2022-10-19T04:35:12.965Z,30.11
2022-10-19T04:37:43.701Z,30.18
2022-10-19T04:40:15.136Z,30.19
2022-10-19T04:42:46.560Z,30.15
2022-10-19T04:45:17.878Z,30.19
2022-10-19T04:47:49.139Z,30.08
2022-10-19T04:50:20.792Z,30.21
2022-10-19T04:53:00.080Z,30.13
2022-10-19T04:55:31.530Z,30.22
2022-10-19T04:58:03.013Z,30.23
2022-10-19T05:00:34.761Z,30.23
2022-10-19T05:03:05.964Z,30.24
2022-10-19T05:05:37.251Z,30.20
2022-10-19T05:08:08.592Z,30.27
2022-10-19T05:10:42.162Z,30.24
2022-10-19T05:13:16.680Z,29.73
2022-10-19T05:15:58.651Z,29.35
2022-10-19T05:18:30.365Z,30.30
2022-10-19T05:21:10.954Z,30.30
2022-10-19T05:23:43.665Z,30.36
2022-10-19T05:26:20.114Z,30.37
2022-10-19T05:29:02.014Z,30.35
2022-10-19T05:31:37.090Z,30.40
2022-10-19T05:36:45.088Z,30.39
2022-10-19T05:39:20.167Z,30.40
2022-10-19T05:41:52.759Z,30.42
2022-10-19T05:44:27.570Z,30.42
2022-10-19T05:46:58.907Z,30.32
2022-10-19T05:49:31.140Z,30.46
2022-10-19T05:52:04.229Z,30.47
2022-10-19T05:54:38.385Z,30.47
2022-10-19T05:57:09.752Z,30.48
2022-10-19T05:59:43.424Z,30.49
2022-10-19T06:05:04.551Z,30.50
2022-10-19T06:07:36.133Z,30.11
2022-10-19T06:10:08.307Z,30.42
2022-10-19T06:12:40.216Z,30.53
2022-10-19T06:15:12.053Z,30.55
2022-10-19T06:17:58.379Z,30.58
2022-10-19T06:20:30.998Z,30.58
2022-10-19T06:23:04.064Z,30.45
2022-10-19T06:25:36.602Z,30.59
2022-10-19T06:28:08.158Z,30.63
2022-10-19T06:30:42.990Z,30.23
2022-10-19T06:33:15.289Z,30.59
2022-10-19T06:35:46.777Z,30.65
2022-10-19T06:38:22.826Z,30.69
2022-10-19T06:40:54.276Z,30.30
2022-10-19T06:43:27.255Z,30.70
2022-10-19T06:45:58.918Z,30.73
2022-10-19T06:48:30.276Z,30.72
2022-10-19T06:51:06.218Z,30.76
2022-10-19T06:53:39.269Z,30.30
2022-10-19T06:56:11.834Z,30.80
2022-10-19T06:58:43.329Z,30.82
2022-10-19T07:01:15.572Z,30.82
2022-10-19T07:03:46.996Z,30.85
2022-10-19T07:06:18.884Z,30.85
2022-10-19T07:08:50.521Z,30.86
2022-10-19T07:11:23.803Z,30.39
2022-10-19T07:13:55.669Z,30.65
2022-10-19T07:16:28.364Z,30.90
2022-10-19T07:19:02.950Z,30.67
2022-10-19T07:21:35.315Z,30.97
2022-10-19T07:24:07.083Z,30.58
2022-10-19T07:26:38.449Z,30.93
2022-10-19T07:29:10.040Z,30.97
2022-10-19T07:31:41.958Z,30.95
2022-10-19T07:34:15.444Z,31.03
2022-10-19T07:36:49.471Z,31.06
2022-10-19T07:39:20.776Z,31.07
2022-10-19T07:41:52.602Z,31.05
2022-10-19T07:44:23.975Z,31.05
2022-10-19T07:46:55.205Z,31.09
2022-10-19T07:49:26.619Z,31.12
2022-10-19T07:52:00.410Z,31.07
2022-10-19T07:54:32.285Z,31.17
2022-10-19T07:57:03.655Z,31.18
2022-10-19T07:59:36.204Z,31.19
2022-10-19T08:02:09.250Z,31.19
2022-10-19T08:05:01.690Z,31.23
2022-10-19T08:07:37.874Z,31.23
2022-10-19T08:10:14.330Z,31.27
2022-10-19T08:12:49.335Z,31.30
2022-10-19T08:15:22.753Z,31.32
2022-10-19T08:17:53.908Z,30.97
2022-10-19T08:20:30.308Z,31.25
2022-10-19T08:23:03.508Z,31.37
2022-10-19T08:25:34.897Z,31.39
2022-10-19T08:28:06.338Z,31.39
2022-10-19T08:30:39.275Z,31.42
2022-10-19T08:33:13.753Z,31.43
2022-10-19T08:35:45.001Z,31.45
2022-10-19T08:38:16.195Z,31.45
2022-10-19T08:40:49.111Z,31.46
2022-10-19T08:43:37.446Z,31.38
2022-10-19T08:46:15.489Z,31.46
2022-10-19T08:48:48.059Z,31.51
2022-10-19T08:51:20.208Z,31.50
2022-10-19T08:53:56.374Z,31.50
2022-10-19T08:56:50.522Z,31.00
2022-10-19T08:59:42.429Z,31.52
2022-10-19T09:02:29.639Z,31.00
2022-10-19T09:05:16.033Z,31.20
2022-10-19T09:07:49.022Z,31.53
2022-10-19T09:10:22.538Z,31.53
2022-10-19T09:13:02.346Z,31.48
2022-10-19T09:15:44.070Z,31.52
2022-10-19T09:18:21.266Z,31.50
2022-10-19T09:21:03.011Z,31.05
2022-10-19T09:23:41.019Z,31.54
2022-10-19T09:26:24.519Z,31.44
2022-10-19T09:29:05.439Z,31.50
2022-10-19T09:31:40.824Z,31.20
2022-10-19T09:34:38.383Z,31.32
2022-10-19T09:37:21.771Z,31.48
2022-10-19T09:39:55.958Z,31.34
2022-10-19T09:42:38.163Z,30.87
2022-10-19T09:45:27.906Z,30.86
2022-10-19T09:48:07.145Z,31.42
2022-10-19T09:50:46.267Z,31.40
2022-10-19T09:53:22.990Z,31.29
2022-10-19T09:56:28.278Z,31.28
2022-10-19T09:59:01.101Z,30.76
2022-10-19T10:01:43.517Z,30.89
2022-10-19T10:04:20.224Z,30.90
2022-10-19T10:06:52.176Z,30.98
2022-10-19T10:09:30.566Z,31.34
2022-10-19T10:12:02.217Z,31.35
2022-10-19T10:14:41.342Z,31.32
2022-10-19T10:17:25.018Z,30.80
2022-10-19T10:20:02.306Z,31.08
2022-10-19T10:22:38.032Z,31.09
2022-10-19T10:25:20.489Z,30.75
2022-10-19T10:28:18.765Z,30.04
2022-10-19T10:30:55.458Z,30.99
2022-10-19T10:33:45.751Z,30.91
2022-10-19T10:36:17.383Z,31.04
2022-10-19T10:38:54.106Z,31.03
2022-10-19T10:41:26.631Z,31.03
2022-10-19T10:44:04.832Z,30.99
2022-10-19T10:47:01.139Z,30.45
2022-10-19T10:49:38.153Z,30.51
2022-10-19T10:52:14.636Z,31.03
2022-10-19T10:55:07.078Z,30.86
2022-10-19T10:57:43.733Z,30.87
2022-10-19T11:00:21.220Z,30.97
2022-10-19T11:03:04.920Z,30.93
2022-10-19T11:05:42.794Z,30.96
2022-10-19T11:08:26.006Z,30.80
2022-10-19T11:11:18.825Z,30.65
2022-10-19T11:13:52.782Z,30.97
2022-10-19T11:16:45.836Z,30.44
2022-10-19T11:19:34.954Z,30.89
2022-10-19T11:22:21.256Z,30.91
2022-10-19T11:25:13.121Z,30.95
2022-10-19T11:27:54.720Z,30.93
2022-10-19T11:30:27.585Z,30.98
2022-10-19T11:33:16.898Z,31.00
2022-10-19T11:35:59.645Z,31.02
2022-10-19T11:38:54.746Z,30.95
2022-10-19T11:41:45.723Z,30.37
2022-10-19T11:44:25.597Z,31.08
2022-10-19T11:47:21.488Z,30.20
2022-10-19T11:50:14.866Z,31.12
2022-10-19T11:53:18.399Z,31.11
2022-10-19T11:56:17.242Z,31.02
2022-10-19T11:58:59.872Z,31.12
2022-10-19T12:01:45.116Z,30.77
2022-10-19T12:04:32.451Z,30.99
2022-10-19T12:07:30.932Z,31.05
2022-10-19T12:10:27.005Z,31.02
2022-10-19T12:13:12.319Z,31.05
2022-10-19T12:15:55.692Z,31.04
2022-10-19T12:18:55.929Z,30.78
2022-10-19T12:21:33.766Z,31.06
2022-10-19T12:24:08.494Z,30.66
2022-10-19T12:26:42.158Z,31.02
2022-10-19T12:29:28.201Z,30.94
2022-10-19T12:32:01.835Z,31.02
2022-10-19T12:34:57.080Z,30.88
2022-10-19T12:37:51.785Z,30.95
2022-10-19T12:40:53.481Z,30.71
2022-10-19T12:43:56.993Z,30.76
2022-10-19T12:46:49.792Z,30.89
2022-10-19T12:49:32.824Z,30.96
2022-10-19T12:52:06.249Z,30.98
2022-10-19T12:54:43.688Z,30.98
2022-10-19T12:57:30.801Z,30.54
2022-10-19T13:00:29.990Z,30.56
2022-10-19T13:03:26.215Z,30.01
2022-10-19T13:06:04.415Z,29.98
2022-10-19T13:08:48.614Z,30.46
2022-10-19T13:11:21.995Z,30.48
2022-10-19T13:14:38.489Z,30.34
2022-10-19T13:17:10.774Z,30.33
2022-10-19T13:19:42.240Z,30.33
2022-10-19T13:22:31.946Z,30.31
2022-10-19T13:25:30.980Z,30.34
2022-10-19T13:28:08.333Z,30.42
2022-10-19T13:31:03.383Z,30.41
2022-10-19T13:33:49.170Z,30.13
2022-10-19T13:36:22.542Z,30.37
2022-10-19T13:39:07.996Z,30.39
2022-10-19T13:41:39.972Z,30.37
2022-10-19T13:44:28.264Z,30.37
2022-10-19T13:47:22.922Z,30.33
2022-10-19T13:50:32.851Z,30.28
2022-10-19T13:53:19.625Z,30.30
2022-10-19T13:56:02.186Z,30.17
2022-10-19T13:59:08.224Z,30.24
2022-10-19T14:02:06.044Z,30.32
2022-10-19T14:05:10.500Z,30.25
2022-10-19T14:07:56.677Z,30.34
2022-10-19T14:10:32.866Z,30.19
2022-10-19T14:13:16.859Z,30.12
2022-10-19T14:15:59.018Z,29.80
2022-10-19T14:18:33.650Z,30.36
2022-10-19T14:21:19.364Z,29.92
2022-10-19T14:23:53.198Z,30.30
2022-10-19T14:26:27.794Z,29.74
2022-10-19T14:29:02.453Z,30.12
2022-10-19T14:31:38.482Z,29.47
2022-10-19T14:34:15.215Z,30.01
2022-10-19T14:36:49.955Z,29.99
2022-10-19T14:39:40.893Z,29.56
2022-10-19T14:42:13.692Z,29.73
2022-10-19T14:44:46.042Z,29.76
2022-10-19T14:47:31.736Z,29.67
2022-10-19T14:50:05.883Z,29.64
2022-10-19T14:52:41.740Z,29.58
2022-10-19T14:55:22.894Z,28.56
2022-10-19T14:57:56.025Z,28.93
2022-10-19T15:00:34.853Z,28.89
2022-10-19T15:03:14.516Z,29.34
2022-10-19T15:05:50.778Z,29.35
2022-10-19T15:08:38.820Z,29.29
2022-10-19T15:11:50.511Z,29.22
2022-10-19T15:14:31.459Z,29.20
2022-10-19T15:17:05.673Z,29.19
2022-10-19T15:19:40.272Z,29.17
2022-10-19T15:22:34.215Z,29.04
2022-10-19T15:25:08.816Z,29.09
2022-10-19T15:27:54.675Z,29.07
2022-10-19T15:30:34.483Z,29.09
2022-10-19T15:33:06.496Z,29.13
2022-10-19T15:35:40.949Z,29.11
2022-10-19T15:38:21.626Z,29.10
2022-10-19T15:41:05.602Z,29.06
2022-10-19T15:43:40.578Z,28.62
2022-10-19T15:46:45.245Z,28.92
2022-10-19T15:49:29.191Z,29.10
2022-10-19T15:52:00.712Z,29.06
2022-10-19T15:54:33.729Z,28.98
2022-10-19T15:57:29.579Z,28.93
2022-10-19T16:00:07.030Z,28.92
2022-10-19T16:02:38.702Z,29.01
2022-10-19T16:05:10.868Z,28.74
2022-10-19T16:07:43.530Z,28.93
2022-10-19T16:10:17.403Z,28.72
2022-10-19T16:12:49.000Z,28.92
2022-10-19T16:15:26.194Z,28.88
2022-10-19T16:18:03.122Z,28.46
2022-10-19T16:20:37.602Z,28.89
2022-10-19T16:23:09.058Z,28.91
2022-10-19T16:25:40.691Z,28.76
2022-10-19T16:28:15.155Z,28.84
2022-10-19T16:30:46.649Z,28.96
2022-10-19T16:33:18.363Z,29.04
2022-10-19T16:35:50.764Z,28.76
2022-10-19T16:38:22.116Z,29.05
2022-10-19T16:40:53.534Z,29.06
2022-10-19T16:43:26.647Z,29.04
2022-10-19T16:45:58.548Z,29.07
2022-10-19T16:48:30.492Z,28.93
2022-10-19T16:51:08.290Z,29.06
2022-10-19T16:53:43.096Z,29.06
2022-10-19T16:56:16.022Z,28.88
2022-10-19T16:58:47.729Z,28.89
2022-10-19T17:01:21.671Z,28.92
2022-10-19T17:03:53.286Z,28.99
2022-10-19T17:06:26.773Z,28.98
2022-10-19T17:09:36.688Z,28.56
2022-10-19T17:11:51.568Z,28.92
2022-10-19T17:14:25.745Z,28.91
2022-10-19T17:16:57.195Z,28.87
2022-10-19T17:19:28.661Z,28.79
2022-10-19T17:22:00.688Z,28.84
2022-10-19T17:24:34.863Z,28.71
2022-10-19T17:27:06.241Z,28.82
2022-10-19T17:29:38.129Z,28.77
2022-10-19T17:32:09.572Z,28.76
2022-10-19T17:34:40.992Z,28.72
2022-10-19T17:37:12.784Z,28.70
2022-10-19T17:39:44.066Z,28.71
2022-10-19T17:42:15.397Z,28.70
2022-10-19T17:44:47.084Z,28.70
2022-10-19T17:47:18.235Z,28.70
2022-10-19T17:49:49.500Z,28.67
2022-10-19T17:52:21.524Z,28.65
2022-10-19T17:55:12.278Z,28.62
2022-10-19T17:57:44.305Z,28.51
2022-10-19T18:00:16.036Z,28.59
2022-10-19T18:02:48.028Z,28.49
2022-10-19T18:05:18.642Z,28.20
2022-10-19T18:07:50.754Z,28.54
2022-10-19T18:10:22.080Z,28.58
2022-10-19T18:13:02.237Z,28.56
2022-10-19T18:15:33.589Z,28.56
2022-10-19T18:18:05.328Z,28.52
2022-10-19T18:20:40.330Z,28.51
2022-10-19T18:23:11.521Z,28.51
2022-10-19T18:25:54.056Z,28.49
2022-10-19T18:28:25.697Z,28.51
2022-10-19T18:30:56.850Z,28.50
2022-10-19T18:33:30.281Z,28.50
2022-10-19T18:36:03.782Z,28.39
2022-10-19T18:38:35.054Z,28.46
2022-10-19T18:41:15.348Z,28.46
2022-10-19T18:43:46.568Z,28.45
2022-10-19T18:46:20.036Z,28.42
2022-10-19T18:48:52.361Z,28.43
2022-10-19T18:51:25.825Z,28.42
2022-10-19T18:53:57.478Z,28.42
2022-10-19T18:56:30.664Z,28.28
2022-10-19T18:59:01.887Z,28.39
2022-10-19T19:01:33.537Z,28.36
2022-10-19T19:04:11.026Z,28.35
2022-10-19T19:06:43.283Z,28.37
2022-10-19T19:09:14.615Z,27.98
2022-10-19T19:11:45.776Z,28.31
2022-10-19T19:14:19.665Z,28.28
2022-10-19T19:16:51.234Z,28.33
2022-10-19T19:19:22.816Z,28.32
2022-10-19T19:21:54.087Z,28.24
2022-10-19T19:24:47.156Z,28.24
2022-10-19T19:27:18.448Z,28.29
2022-10-19T19:29:51.326Z,28.25
2022-10-19T19:32:23.155Z,28.27
2022-10-19T19:34:55.067Z,28.26
2022-10-19T19:37:26.296Z,28.23
2022-10-19T19:39:57.484Z,28.22
2022-10-19T19:42:28.685Z,28.13
2022-10-19T19:45:00.129Z,28.18
2022-10-19T19:47:31.615Z,28.11
2022-10-19T19:50:02.844Z,28.18
2022-10-19T19:52:38.074Z,28.15
2022-10-19T19:55:11.433Z,28.16
2022-10-19T19:57:42.592Z,28.14
2022-10-19T20:00:14.366Z,28.14
2022-10-19T20:02:45.409Z,27.74
2022-10-19T20:05:17.362Z,27.98
2022-10-19T20:07:48.526Z,28.10
2022-10-19T20:10:20.238Z,28.10
2022-10-19T20:12:51.576Z,28.10
2022-10-19T20:15:23.047Z,28.09
2022-10-19T20:17:54.171Z,27.99
2022-10-19T20:20:25.370Z,27.93
2022-10-19T20:22:56.628Z,28.07
2022-10-19T20:25:27.844Z,28.07
2022-10-19T20:27:59.092Z,28.07
2022-10-19T20:30:30.359Z,28.06
2022-10-19T20:33:01.535Z,27.92
2022-10-19T20:35:32.665Z,28.04
2022-10-19T20:38:05.173Z,27.89
2022-10-19T20:40:36.319Z,28.00
2022-10-19T20:43:07.460Z,28.03
2022-10-19T20:45:38.842Z,28.00
2022-10-19T20:48:10.127Z,28.00
2022-10-19T20:50:41.844Z,27.96
2022-10-19T20:53:13.851Z,27.96
2022-10-19T20:55:45.041Z,27.95
2022-10-19T20:58:16.596Z,27.87
2022-10-19T21:00:47.761Z,27.95
2022-10-19T21:03:19.202Z,27.95
2022-10-19T21:05:50.599Z,27.95
2022-10-19T21:08:22.029Z,27.57
2022-10-19T21:10:53.175Z,27.91
2022-10-19T21:13:24.432Z,27.88
2022-10-19T21:15:55.632Z,27.85
2022-10-19T21:18:26.805Z,27.85
2022-10-19T21:20:58.066Z,27.83
2022-10-19T21:23:29.879Z,27.86
2022-10-19T21:26:01.268Z,27.83
2022-10-19T21:28:32.431Z,27.78
2022-10-19T21:31:11.272Z,27.36
2022-10-19T21:33:42.498Z,27.85
2022-10-19T21:36:15.363Z,27.32
2022-10-19T21:38:46.688Z,27.78
2022-10-19T21:41:23.731Z,27.27
2022-10-19T21:43:57.531Z,27.17
2022-10-19T21:46:29.285Z,27.68
2022-10-19T21:49:00.738Z,27.79
2022-10-19T21:51:48.857Z,27.80
2022-10-19T21:54:23.288Z,27.69
2022-10-19T21:56:56.383Z,27.59
2022-10-19T21:59:27.789Z,27.79
2022-10-19T22:01:59.122Z,27.75
2022-10-19T22:04:30.495Z,27.65
2022-10-19T22:07:02.646Z,27.73
2022-10-19T22:09:34.968Z,27.75
2022-10-19T22:12:06.274Z,27.71
2022-10-19T22:14:37.467Z,27.74
2022-10-19T22:17:08.657Z,27.74
2022-10-19T22:19:40.666Z,27.74
2022-10-19T22:22:11.857Z,27.73
2022-10-19T22:24:43.307Z,27.73
2022-10-19T22:27:14.520Z,27.69
2022-10-19T22:29:46.316Z,27.57
2022-10-19T22:32:17.500Z,27.72
2022-10-19T22:34:48.651Z,27.71
2022-10-19T22:37:19.787Z,27.70
2022-10-19T22:39:50.938Z,27.71
2022-10-19T22:42:34.531Z,27.63
2022-10-19T22:45:06.360Z,27.68
2022-10-19T22:47:37.557Z,27.67
2022-10-19T22:50:10.858Z,27.62
2022-10-19T22:52:42.150Z,27.61
2022-10-19T22:55:13.387Z,27.63
2022-10-19T22:57:44.524Z,27.62
2022-10-19T23:00:15.940Z,27.66
2022-10-19T23:02:47.178Z,27.41
2022-10-19T23:05:18.846Z,27.40
2022-10-19T23:08:20.536Z,27.52
2022-10-19T23:10:51.753Z,27.56
2022-10-19T23:13:22.971Z,27.60
2022-10-19T23:15:54.175Z,27.72
2022-10-19T23:18:25.369Z,27.75
2022-10-19T23:21:02.050Z,27.88
2022-10-19T23:23:35.141Z,27.93
2022-10-19T23:26:53.557Z,28.05
2022-10-19T23:29:43.605Z,28.00
2022-10-19T23:32:14.768Z,28.17
2022-10-19T23:34:48.299Z,28.24
2022-10-19T23:37:19.765Z,28.18
2022-10-19T23:39:51.344Z,28.06
2022-10-19T23:42:22.458Z,28.22
2022-10-19T23:44:53.601Z,28.39
2022-10-19T23:47:25.293Z,28.38
2022-10-19T23:49:56.424Z,28.46
2022-10-19T23:52:33.671Z,28.49
2022-10-19T23:55:44.571Z,28.49
2022-10-19T23:58:15.758Z,28.57
